sensor_id;sensor_type;location;lat;lon;timestamp;pressure;altitude;pressure_sealevel;temperature;humidity
18436;BME280;9346;52.006;4.720;2023-07-13T00:00:22;101218.09;;;19.56;100.00
18436;BME280;9346;52.006;4.720;2023-07-13T00:02:50;101221.72;;;19.56;100.00
18436;BME280;9346;52.006;4.720;2023-07-13T00:05:20;101224.81;;;19.55;100.00
18436;BME280;9346;52.006;4.720;2023-07-13T00:07:48;101219.56;;;19.53;100.00
18436;BME280;9346;52.006;4.720;2023-07-13T00:10:15;101223.00;;;19.50;100.00
18436;BME280;9346;52.006;4.720;2023-07-13T00:12:43;101230.06;;;19.48;100.00
18436;BME280;9346;52.006;4.720;2023-07-13T00:15:13;101214.44;;;19.47;100.00
18436;BME280;9346;52.006;4.720;2023-07-13T00:17:42;101211.16;;;19.45;100.00
18436;BME280;9346;52.006;4.720;2023-07-13T00:20:10;101218.19;;;19.42;100.00
18436;BME280;9346;52.006;4.720;2023-07-13T00:22:39;101210.66;;;19.43;100.00
18436;BME280;9346;52.006;4.720;2023-07-13T00:25:08;101208.81;;;19.38;100.00
18436;BME280;9346;52.006;4.720;2023-07-13T00:27:36;101209.16;;;19.37;100.00
18436;BME280;9346;52.006;4.720;2023-07-13T00:30:04;101217.84;;;19.35;100.00
18436;BME280;9346;52.006;4.720;2023-07-13T00:32:31;101229.84;;;19.36;100.00
18436;BME280;9346;52.006;4.720;2023-07-13T00:34:59;101218.69;;;19.36;100.00
18436;BME280;9346;52.006;4.720;2023-07-13T00:37:27;101227.06;;;19.36;100.00
18436;BME280;9346;52.006;4.720;2023-07-13T00:39:56;101218.50;;;19.32;100.00
18436;BME280;9346;52.006;4.720;2023-07-13T00:42:23;101215.38;;;19.34;100.00
18436;BME280;9346;52.006;4.720;2023-07-13T00:45:01;101222.63;;;19.35;100.00
18436;BME280;9346;52.006;4.720;2023-07-13T00:47:29;101218.19;;;19.34;100.00
18436;BME280;9346;52.006;4.720;2023-07-13T00:49:56;101217.38;;;19.33;100.00
18436;BME280;9346;52.006;4.720;2023-07-13T00:52:23;101222.63;;;19.35;100.00
18436;BME280;9346;52.006;4.720;2023-07-13T00:54:51;101223.75;;;19.34;100.00
18436;BME280;9346;52.006;4.720;2023-07-13T00:57:20;101215.69;;;19.32;100.00
18436;BME280;9346;52.006;4.720;2023-07-13T00:59:51;101219.66;;;19.31;100.00
18436;BME280;9346;52.006;4.720;2023-07-13T01:02:19;101218.81;;;19.31;100.00
18436;BME280;9346;52.006;4.720;2023-07-13T01:04:48;101222.44;;;19.31;100.00
18436;BME280;9346;52.006;4.720;2023-07-13T01:07:15;101218.34;;;19.29;100.00
18436;BME280;9346;52.006;4.720;2023-07-13T01:09:43;101227.53;;;19.29;100.00
18436;BME280;9346;52.006;4.720;2023-07-13T01:12:11;101230.63;;;19.28;100.00
18436;BME280;9346;52.006;4.720;2023-07-13T01:14:41;101233.75;;;19.26;100.00
18436;BME280;9346;52.006;4.720;2023-07-13T01:17:10;101231.25;;;19.25;100.00
18436;BME280;9346;52.006;4.720;2023-07-13T01:19:39;101224.66;;;19.21;100.00
18436;BME280;9346;52.006;4.720;2023-07-13T01:22:11;101223.03;;;19.20;100.00
18436;BME280;9346;52.006;4.720;2023-07-13T01:24:41;101232.25;;;19.20;100.00
18436;BME280;9346;52.006;4.720;2023-07-13T01:27:10;101231.41;;;19.20;100.00
18436;BME280;9346;52.006;4.720;2023-07-13T01:29:39;101239.44;;;19.13;100.00
18436;BME280;9346;52.006;4.720;2023-07-13T01:32:08;101235.94;;;19.07;100.00
18436;BME280;9346;52.006;4.720;2023-07-13T01:34:35;101240.19;;;19.05;100.00
18436;BME280;9346;52.006;4.720;2023-07-13T01:37:03;101244.78;;;19.01;100.00
18436;BME280;9346;52.006;4.720;2023-07-13T01:39:32;101244.25;;;18.99;100.00
18436;BME280;9346;52.006;4.720;2023-07-13T01:42:00;101251.00;;;18.98;100.00
18436;BME280;9346;52.006;4.720;2023-07-13T01:44:27;101253.44;;;18.91;100.00
18436;BME280;9346;52.006;4.720;2023-07-13T01:46:54;101256.19;;;18.82;100.00
18436;BME280;9346;52.006;4.720;2023-07-13T01:49:21;101262.03;;;18.72;100.00
18436;BME280;9346;52.006;4.720;2023-07-13T01:51:48;101262.97;;;18.68;100.00
18436;BME280;9346;52.006;4.720;2023-07-13T01:54:16;101259.66;;;18.66;100.00
18436;BME280;9346;52.006;4.720;2023-07-13T01:56:45;101264.88;;;18.59;100.00
18436;BME280;9346;52.006;4.720;2023-07-13T01:59:12;101272.72;;;18.57;100.00
18436;BME280;9346;52.006;4.720;2023-07-13T02:01:40;101278.94;;;18.54;100.00
18436;BME280;9346;52.006;4.720;2023-07-13T02:04:07;101273.34;;;18.54;100.00
18436;BME280;9346;52.006;4.720;2023-07-13T02:06:34;101275.66;;;18.52;100.00
18436;BME280;9346;52.006;4.720;2023-07-13T02:09:02;101274.81;;;18.51;100.00
18436;BME280;9346;52.006;4.720;2023-07-13T02:11:29;101272.03;;;18.51;100.00
18436;BME280;9346;52.006;4.720;2023-07-13T02:14:00;101274.50;;;18.53;100.00
18436;BME280;9346;52.006;4.720;2023-07-13T02:16:27;101278.75;;;18.50;100.00
18436;BME280;9346;52.006;4.720;2023-07-13T02:18:55;101273.97;;;18.51;100.00
18436;BME280;9346;52.006;4.720;2023-07-13T02:21:23;101272.03;;;18.51;100.00
18436;BME280;9346;52.006;4.720;2023-07-13T02:23:50;101272.88;;;18.52;100.00
18436;BME280;9346;52.006;4.720;2023-07-13T02:26:18;101273.34;;;18.54;100.00
18436;BME280;9346;52.006;4.720;2023-07-13T02:28:45;101270.06;;;18.52;100.00
18436;BME280;9346;52.006;4.720;2023-07-13T02:31:15;101271.72;;;18.53;100.00
18436;BME280;9346;52.006;4.720;2023-07-13T02:33:42;101272.88;;;18.52;100.00
18436;BME280;9346;52.006;4.720;2023-07-13T02:36:10;101266.75;;;18.50;100.00
18436;BME280;9346;52.006;4.720;2023-07-13T02:38:39;101270.19;;;18.47;100.00
18436;BME280;9346;52.006;4.720;2023-07-13T02:41:07;101269.19;;;18.43;100.00
18436;BME280;9346;52.006;4.720;2023-07-13T02:43:35;101273.44;;;18.40;100.00
18436;BME280;9346;52.006;4.720;2023-07-13T02:46:03;101270.13;;;18.38;100.00
18436;BME280;9346;52.006;4.720;2023-07-13T02:48:34;101264.84;;;18.37;100.00
18436;BME280;9346;52.006;4.720;2023-07-13T02:51:02;101262.66;;;18.34;100.00
18436;BME280;9346;52.006;4.720;2023-07-13T02:53:29;101277.22;;;18.31;100.00
18436;BME280;9346;52.006;4.720;2023-07-13T02:55:57;101261.66;;;18.30;100.00
18436;BME280;9346;52.006;4.720;2023-07-13T02:58:24;101268.88;;;18.31;100.00
18436;BME280;9346;52.006;4.720;2023-07-13T03:00:51;101268.06;;;18.30;100.00
18436;BME280;9346;52.006;4.720;2023-07-13T03:03:20;101265.59;;;18.29;100.00
18436;BME280;9346;52.006;4.720;2023-07-13T03:05:58;101274.75;;;18.29;100.00
18436;BME280;9346;52.006;4.720;2023-07-13T03:08:26;101268.06;;;18.30;100.00
18436;BME280;9346;52.006;4.720;2023-07-13T03:10:59;101273.13;;;18.28;100.00
18436;BME280;9346;52.006;4.720;2023-07-13T03:13:26;101277.38;;;18.26;100.00
18436;BME280;9346;52.006;4.720;2023-07-13T03:15:53;101276.47;;;18.17;100.00
18436;BME280;9346;52.006;4.720;2023-07-13T03:18:20;101275.56;;;18.08;100.00
18436;BME280;9346;52.006;4.720;2023-07-13T03:20:52;101280.91;;;18.04;100.00
18436;BME280;9346;52.006;4.720;2023-07-13T03:23:20;101276.63;;;17.98;100.00
18436;BME280;9346;52.006;4.720;2023-07-13T03:25:48;101271.97;;;17.94;100.00
18436;BME280;9346;52.006;4.720;2023-07-13T03:28:15;101279.50;;;17.93;100.00
18436;BME280;9346;52.006;4.720;2023-07-13T03:30:43;101275.69;;;17.89;100.00
18436;BME280;9346;52.006;4.720;2023-07-13T03:33:10;101286.16;;;17.84;100.00
18436;BME280;9346;52.006;4.720;2023-07-13T03:35:40;101285.09;;;17.79;100.00
18436;BME280;9346;52.006;4.720;2023-07-13T03:38:10;101289.03;;;17.78;100.00
18436;BME280;9346;52.006;4.720;2023-07-13T03:40:37;101287.69;;;17.76;100.00
18436;BME280;9346;52.006;4.720;2023-07-13T03:43:04;101296.38;;;17.74;100.00
18436;BME280;9346;52.006;4.720;2023-07-13T03:45:31;101291.94;;;17.73;100.00
18436;BME280;9346;52.006;4.720;2023-07-13T03:47:58;101293.06;;;17.72;100.00
18436;BME280;9346;52.006;4.720;2023-07-13T03:50:25;101290.56;;;17.71;100.00
18436;BME280;9346;52.006;4.720;2023-07-13T03:52:53;101298.13;;;17.70;100.00
18436;BME280;9346;52.006;4.720;2023-07-13T03:55:23;101298.44;;;17.69;100.00
18436;BME280;9346;52.006;4.720;2023-07-13T03:57:58;101304.00;;;17.69;100.00
18436;BME280;9346;52.006;4.720;2023-07-13T04:00:25;101302.03;;;17.69;100.00
18436;BME280;9346;52.006;4.720;2023-07-13T04:02:53;101310.38;;;17.69;100.00
18436;BME280;9346;52.006;4.720;2023-07-13T04:05:20;101310.91;;;17.71;100.00
18436;BME280;9346;52.006;4.720;2023-07-13T04:07:48;101311.09;;;17.75;100.00
18436;BME280;9346;52.006;4.720;2023-07-13T04:10:15;101315.88;;;17.74;100.00
18436;BME280;9346;52.006;4.720;2023-07-13T04:12:44;101315.25;;;17.77;100.00
18436;BME280;9346;52.006;4.720;2023-07-13T04:15:12;101317.50;;;17.75;100.00
18436;BME280;9346;52.006;4.720;2023-07-13T04:17:39;101322.25;;;17.75;100.00
18436;BME280;9346;52.006;4.720;2023-07-13T04:20:07;101322.59;;;17.73;100.00
18436;BME280;9346;52.006;4.720;2023-07-13T04:22:35;101329.28;;;17.72;100.00
18436;BME280;9346;52.006;4.720;2023-07-13T04:25:02;101324.53;;;17.73;100.00
18436;BME280;9346;52.006;4.720;2023-07-13T04:27:30;101334.84;;;17.72;100.00
18436;BME280;9346;52.006;4.720;2023-07-13T04:29:59;101336.50;;;17.73;100.00
18436;BME280;9346;52.006;4.720;2023-07-13T04:32:26;101341.75;;;17.75;100.00
18436;BME280;9346;52.006;4.720;2023-07-13T04:34:53;101339.19;;;17.78;100.00
18436;BME280;9346;52.006;4.720;2023-07-13T04:37:22;101345.78;;;17.83;100.00
18436;BME280;9346;52.006;4.720;2023-07-13T04:39:50;101351.66;;;17.81;100.00
18436;BME280;9346;52.006;4.720;2023-07-13T04:42:17;101349.50;;;17.78;100.00
18436;BME280;9346;52.006;4.720;2023-07-13T04:44:47;101350.31;;;17.78;100.00
18436;BME280;9346;52.006;4.720;2023-07-13T04:47:17;101354.03;;;17.74;100.00
18436;BME280;9346;52.006;4.720;2023-07-13T04:49:44;101360.44;;;17.74;100.00
18436;BME280;9346;52.006;4.720;2023-07-13T04:52:13;101361.38;;;17.84;100.00
18436;BME280;9346;52.006;4.720;2023-07-13T04:54:40;101363.03;;;17.85;100.00
18436;BME280;9346;52.006;4.720;2023-07-13T04:57:07;101363.03;;;17.85;100.00
18436;BME280;9346;52.006;4.720;2023-07-13T04:59:35;101360.25;;;17.85;100.00
18436;BME280;9346;52.006;4.720;2023-07-13T05:02:02;101359.41;;;17.84;100.00
18436;BME280;9346;52.006;4.720;2023-07-13T05:04:31;101363.34;;;17.83;100.00
18436;BME280;9346;52.006;4.720;2023-07-13T05:06:59;101364.56;;;17.91;100.00
18436;BME280;9346;52.006;4.720;2023-07-13T05:09:26;101373.97;;;17.95;100.00
18436;BME280;9346;52.006;4.720;2023-07-13T05:11:54;101374.47;;;17.97;100.00
18436;BME280;9346;52.006;4.720;2023-07-13T05:14:21;101381.59;;;18.03;100.00
18436;BME280;9346;52.006;4.720;2023-07-13T05:16:48;101382.09;;;18.05;100.00
18436;BME280;9346;52.006;4.720;2023-07-13T05:19:15;101386.84;;;18.04;100.00
18436;BME280;9346;52.006;4.720;2023-07-13T05:21:44;101392.22;;;18.14;100.00
18436;BME280;9346;52.006;4.720;2023-07-13T05:24:12;101393.97;;;18.24;100.00
18436;BME280;9346;52.006;4.720;2023-07-13T05:26:38;101390.25;;;18.28;100.00
18436;BME280;9346;52.006;4.720;2023-07-13T05:29:06;101394.88;;;18.33;100.00
18436;BME280;9346;52.006;4.720;2023-07-13T05:31:33;101391.38;;;18.41;100.00
18436;BME280;9346;52.006;4.720;2023-07-13T05:34:00;101396.09;;;18.54;100.00
18436;BME280;9346;52.006;4.720;2023-07-13T05:36:27;101397.94;;;18.58;100.00
18436;BME280;9346;52.006;4.720;2023-07-13T05:38:56;101395.38;;;18.62;100.00
18436;BME280;9346;52.006;4.720;2023-07-13T05:41:23;101401.34;;;18.69;100.00
18436;BME280;9346;52.006;4.720;2023-07-13T05:43:51;101404.50;;;18.76;100.00
18436;BME280;9346;52.006;4.720;2023-07-13T05:46:18;101412.16;;;18.84;100.00
18436;BME280;9346;52.006;4.720;2023-07-13T05:48:45;101407.59;;;18.88;100.00
18436;BME280;9346;52.006;4.720;2023-07-13T05:51:13;101411.91;;;18.94;100.00
18436;BME280;9346;52.006;4.720;2023-07-13T05:53:40;101403.28;;;19.04;100.00
18436;BME280;9346;52.006;4.720;2023-07-13T05:56:09;101401.00;;;19.06;100.00
18436;BME280;9346;52.006;4.720;2023-07-13T05:58:36;101409.56;;;19.09;100.00
18436;BME280;9346;52.006;4.720;2023-07-13T06:01:05;101415.34;;;19.13;100.00
18436;BME280;9346;52.006;4.720;2023-07-13T06:03:33;101418.63;;;19.15;100.00
18436;BME280;9346;52.006;4.720;2023-07-13T06:06:00;101418.63;;;19.15;100.00
18436;BME280;9346;52.006;4.720;2023-07-13T06:08:28;101412.28;;;19.23;100.00
18436;BME280;9346;52.006;4.720;2023-07-13T06:11:01;101419.75;;;19.27;100.00
18436;BME280;9346;52.006;4.720;2023-07-13T06:13:30;101422.41;;;19.32;100.00
18436;BME280;9346;52.006;4.720;2023-07-13T06:15:58;101426.41;;;19.40;100.00
18436;BME280;9346;52.006;4.720;2023-07-13T06:18:25;101419.53;;;19.46;100.00
18436;BME280;9346;52.006;4.720;2023-07-13T06:20:53;101423.47;;;19.23;100.00
18436;BME280;9346;52.006;4.720;2023-07-13T06:23:20;101438.41;;;19.05;100.00
18436;BME280;9346;52.006;4.720;2023-07-13T06:25:47;101444.78;;;18.97;100.00
18436;BME280;9346;52.006;4.720;2023-07-13T06:28:14;101434.88;;;18.91;100.00
18436;BME280;9346;52.006;4.720;2023-07-13T06:30:43;101439.75;;;18.85;100.00
18436;BME280;9346;52.006;4.720;2023-07-13T06:33:10;101442.97;;;18.79;100.00
18436;BME280;9346;52.006;4.720;2023-07-13T06:35:38;101447.38;;;18.80;100.00
18436;BME280;9346;52.006;4.720;2023-07-13T06:38:05;101435.09;;;18.81;100.00
18436;BME280;9346;52.006;4.720;2023-07-13T06:40:32;101442.97;;;18.79;100.00
18436;BME280;9346;52.006;4.720;2023-07-13T06:42:59;101446.91;;;18.78;100.00
18436;BME280;9346;52.006;4.720;2023-07-13T06:45:26;101443.59;;;18.76;100.00
18436;BME280;9346;52.006;4.720;2023-07-13T06:47:55;101453.09;;;18.75;100.00
18436;BME280;9346;52.006;4.720;2023-07-13T06:50:22;101455.91;;;18.75;100.00
18436;BME280;9346;52.006;4.720;2023-07-13T06:52:49;101445.03;;;18.73;100.00
18436;BME280;9346;52.006;4.720;2023-07-13T06:55:18;101451.34;;;18.79;100.00
18436;BME280;9346;52.006;4.720;2023-07-13T06:57:45;101460.09;;;18.86;100.00
18436;BME280;9346;52.006;4.720;2023-07-13T07:00:13;101452.66;;;18.81;100.00
18436;BME280;9346;52.006;4.720;2023-07-13T07:02:41;101452.66;;;18.81;100.00
18436;BME280;9346;52.006;4.720;2023-07-13T07:05:10;101454.13;;;18.79;100.00
18436;BME280;9346;52.006;4.720;2023-07-13T07:07:38;101460.63;;;18.74;100.00
18436;BME280;9346;52.006;4.720;2023-07-13T07:10:06;101457.84;;;18.74;100.00
18436;BME280;9346;52.006;4.720;2023-07-13T07:12:34;101458.38;;;18.76;100.00
18436;BME280;9346;52.006;4.720;2023-07-13T07:15:01;101456.03;;;18.92;100.00
18436;BME280;9346;52.006;4.720;2023-07-13T07:17:28;101464.88;;;19.07;100.00
18436;BME280;9346;52.006;4.720;2023-07-13T07:19:56;101469.06;;;19.32;100.00
18436;BME280;9346;52.006;4.720;2023-07-13T07:22:24;101474.91;;;19.44;100.00
18436;BME280;9346;52.006;4.720;2023-07-13T07:24:52;101473.50;;;19.55;100.00
18436;BME280;9346;52.006;4.720;2023-07-13T07:27:20;101471.72;;;19.59;100.00
18436;BME280;9346;52.006;4.720;2023-07-13T07:29:47;101477.69;;;19.66;100.00
18436;BME280;9346;52.006;4.720;2023-07-13T07:32:16;101479.47;;;19.62;100.00
18436;BME280;9346;52.006;4.720;2023-07-13T07:34:43;101473.97;;;19.79;100.00
18436;BME280;9346;52.006;4.720;2023-07-13T07:37:11;101470.16;;;19.75;100.00
18436;BME280;9346;52.006;4.720;2023-07-13T07:39:40;101469.66;;;19.73;100.00
18436;BME280;9346;52.006;4.720;2023-07-13T07:42:08;101459.00;;;19.75;100.00
18436;BME280;9346;52.006;4.720;2023-07-13T07:44:35;101465.41;;;19.75;100.00
18436;BME280;9346;52.006;4.720;2023-07-13T07:47:02;101475.50;;;19.63;100.00
18436;BME280;9346;52.006;4.720;2023-07-13T07:49:29;101478.47;;;19.58;100.00
18436;BME280;9346;52.006;4.720;2023-07-13T07:51:57;101483.00;;;19.54;100.00
18436;BME280;9346;52.006;4.720;2023-07-13T07:54:24;101487.16;;;19.56;100.00
18436;BME280;9346;52.006;4.720;2023-07-13T07:56:53;101491.59;;;19.57;100.00
18436;BME280;9346;52.006;4.720;2023-07-13T07:59:20;101481.84;;;19.46;100.00
18436;BME280;9346;52.006;4.720;2023-07-13T08:01:47;101478.94;;;19.38;100.00
18436;BME280;9346;52.006;4.720;2023-07-13T08:04:15;101481.75;;;19.38;100.00
18436;BME280;9346;52.006;4.720;2023-07-13T08:06:43;101484.75;;;19.41;100.00
18436;BME280;9346;52.006;4.720;2023-07-13T08:09:10;101487.59;;;19.50;100.00
18436;BME280;9346;52.006;4.720;2023-07-13T08:11:37;101482.22;;;19.53;100.00
18436;BME280;9346;52.006;4.720;2023-07-13T08:14:06;101485.94;;;19.49;100.00
18436;BME280;9346;52.006;4.720;2023-07-13T08:16:34;101485.59;;;19.42;100.00
18436;BME280;9346;52.006;4.720;2023-07-13T08:19:02;101490.97;;;19.38;100.00
18436;BME280;9346;52.006;4.720;2023-07-13T08:21:29;101490.13;;;19.38;100.00
18436;BME280;9346;52.006;4.720;2023-07-13T08:23:57;101486.28;;;19.47;100.00
18436;BME280;9346;52.006;4.720;2023-07-13T08:26:24;101484.69;;;19.55;100.00
18436;BME280;9346;52.006;4.720;2023-07-13T08:28:51;101482.09;;;19.67;100.00
18436;BME280;9346;52.006;4.720;2023-07-13T08:31:20;101483.31;;;19.74;100.00
18436;BME280;9346;52.006;4.720;2023-07-13T08:33:47;101493.84;;;19.77;100.00
18436;BME280;9346;52.006;4.720;2023-07-13T08:36:15;101490.63;;;19.84;100.00
18436;BME280;9346;52.006;4.720;2023-07-13T08:38:42;101485.44;;;20.00;100.00
18436;BME280;9346;52.006;4.720;2023-07-13T08:41:13;101485.78;;;20.07;100.00
18436;BME280;9346;52.006;4.720;2023-07-13T08:43:45;101484.72;;;20.16;100.00
18436;BME280;9346;52.006;4.720;2023-07-13T08:46:17;101480.13;;;20.20;100.00
18436;BME280;9346;52.006;4.720;2023-07-13T08:48:49;101479.94;;;20.17;100.00
18436;BME280;9346;52.006;4.720;2023-07-13T08:51:26;101483.38;;;20.14;100.00
18436;BME280;9346;52.006;4.720;2023-07-13T08:53:58;101482.50;;;20.05;100.00
18436;BME280;9346;52.006;4.720;2023-07-13T08:56:28;101484.09;;;19.97;100.00
18436;BME280;9346;52.006;4.720;2023-07-13T08:58:58;101485.91;;;19.93;100.00
18436;BME280;9346;52.006;4.720;2023-07-13T09:01:31;101482.72;;;19.86;100.00
18436;BME280;9346;52.006;4.720;2023-07-13T09:04:05;101487.81;;;19.84;100.00
18436;BME280;9346;52.006;4.720;2023-07-13T09:06:46;101494.06;;;19.81;100.00
18436;BME280;9346;52.006;4.720;2023-07-13T09:09:30;101495.00;;;19.76;100.00
18436;BME280;9346;52.006;4.720;2023-07-13T09:12:09;101494.19;;;19.76;100.00
18436;BME280;9346;52.006;4.720;2023-07-13T09:14:43;101503.41;;;19.76;100.00
18436;BME280;9346;52.006;4.720;2023-07-13T09:17:15;101503.91;;;19.78;100.00
18436;BME280;9346;52.006;4.720;2023-07-13T09:19:51;101508.50;;;19.83;100.00
18436;BME280;9346;52.006;4.720;2023-07-13T09:22:22;101501.66;;;19.89;100.00
18436;BME280;9346;52.006;4.720;2023-07-13T09:24:57;101511.91;;;20.02;100.00
18436;BME280;9346;52.006;4.720;2023-07-13T09:27:30;101525.34;;;20.14;100.00
18436;BME280;9346;52.006;4.720;2023-07-13T09:30:08;101509.25;;;20.19;100.00
18436;BME280;9346;52.006;4.720;2023-07-13T09:32:39;101507.19;;;20.11;100.00
18436;BME280;9346;52.006;4.720;2023-07-13T09:35:14;101512.28;;;20.09;100.00
18436;BME280;9346;52.006;4.720;2023-07-13T09:37:45;101514.41;;;20.04;100.00
18436;BME280;9346;52.006;4.720;2023-07-13T09:40:30;101518.34;;;20.03;100.00
18436;BME280;9346;52.006;4.720;2023-07-13T09:43:03;101512.56;;;19.99;100.00
18436;BME280;9346;52.006;4.720;2023-07-13T09:45:34;101524.06;;;19.98;100.00
18436;BME280;9346;52.006;4.720;2023-07-13T09:48:05;101518.44;;;19.89;100.00
18436;BME280;9346;52.006;4.720;2023-07-13T09:50:44;101519.06;;;19.86;100.00
18436;BME280;9346;52.006;4.720;2023-07-13T09:53:13;101523.00;;;19.85;100.00
18436;BME280;9346;52.006;4.720;2023-07-13T09:55:42;101535.19;;;19.89;100.00
18436;BME280;9346;52.006;4.720;2023-07-13T09:58:12;101527.34;;;19.91;100.00
18436;BME280;9346;52.006;4.720;2023-07-13T10:00:41;101526.19;;;19.92;100.00
18436;BME280;9346;52.006;4.720;2023-07-13T10:03:18;101526.06;;;19.97;100.00
18436;BME280;9346;52.006;4.720;2023-07-13T10:05:51;101533.16;;;20.03;100.00
18436;BME280;9346;52.006;4.720;2023-07-13T10:08:21;101532.91;;;20.13;100.00
18436;BME280;9346;52.006;4.720;2023-07-13T10:11:16;101538.72;;;20.25;100.00
18436;BME280;9346;52.006;4.720;2023-07-13T10:13:50;101535.97;;;20.34;100.00
18436;BME280;9346;52.006;4.720;2023-07-13T10:16:19;101538.81;;;20.42;100.00
18436;BME280;9346;52.006;4.720;2023-07-13T10:18:48;101543.94;;;20.49;100.00
18436;BME280;9346;52.006;4.720;2023-07-13T10:21:19;101538.88;;;20.59;100.00
18436;BME280;9346;52.006;4.720;2023-07-13T10:23:51;101546.81;;;20.66;100.00
18436;BME280;9346;52.006;4.720;2023-07-13T10:26:23;101534.78;;;20.74;100.00
18436;BME280;9346;52.006;4.720;2023-07-13T10:28:55;101539.75;;;20.85;100.00
18436;BME280;9346;52.006;4.720;2023-07-13T10:31:23;101541.59;;;20.90;100.00
18436;BME280;9346;52.006;4.720;2023-07-13T10:33:51;101538.13;;;20.93;100.00
18436;BME280;9346;52.006;4.720;2023-07-13T10:36:29;101537.19;;;20.97;100.00
18436;BME280;9346;52.006;4.720;2023-07-13T10:38:59;101541.31;;;21.08;100.00
18436;BME280;9346;52.006;4.720;2023-07-13T10:41:31;101538.53;;;21.17;100.00
18436;BME280;9346;52.006;4.720;2023-07-13T10:44:04;101549.25;;;21.23;100.00
18436;BME280;9346;52.006;4.720;2023-07-13T10:46:32;101546.13;;;21.33;100.00
18436;BME280;9346;52.006;4.720;2023-07-13T10:49:02;101550.88;;;21.41;100.00
18436;BME280;9346;52.006;4.720;2023-07-13T10:51:34;101552.88;;;21.41;100.00
18436;BME280;9346;52.006;4.720;2023-07-13T10:54:16;101556.16;;;21.34;100.00
18436;BME280;9346;52.006;4.720;2023-07-13T10:56:45;101558.31;;;21.29;100.00
18436;BME280;9346;52.006;4.720;2023-07-13T10:59:17;101565.06;;;21.19;100.00
18436;BME280;9346;52.006;4.720;2023-07-13T11:01:50;101559.94;;;21.13;100.00
18436;BME280;9346;52.006;4.720;2023-07-13T11:04:20;101563.06;;;21.11;100.00
18436;BME280;9346;52.006;4.720;2023-07-13T11:06:56;101558.97;;;21.17;100.00
18436;BME280;9346;52.006;4.720;2023-07-13T11:09:37;101559.47;;;21.28;100.00
18436;BME280;9346;52.006;4.720;2023-07-13T11:12:18;101562.44;;;21.31;100.00
18436;BME280;9346;52.006;4.720;2023-07-13T11:15:06;101559.97;;;21.38;100.00
18436;BME280;9346;52.006;4.720;2023-07-13T11:17:47;101553.88;;;21.36;100.00
18436;BME280;9346;52.006;4.720;2023-07-13T11:20:24;101547.75;;;21.43;100.00
18436;BME280;9346;52.006;4.720;2023-07-13T11:23:17;101545.63;;;21.48;100.00
18436;BME280;9346;52.006;4.720;2023-07-13T11:25:45;101563.44;;;21.52;100.00
18436;BME280;9346;52.006;4.720;2023-07-13T11:28:20;101553.06;;;21.53;100.00
18436;BME280;9346;52.006;4.720;2023-07-13T11:30:53;101560.97;;;21.59;100.00
18436;BME280;9346;52.006;4.720;2023-07-13T11:33:28;101551.06;;;21.62;100.00
18436;BME280;9346;52.006;4.720;2023-07-13T11:36:02;101561.28;;;21.66;100.00
18436;BME280;9346;52.006;4.720;2023-07-13T11:38:35;101561.94;;;21.72;100.00
18436;BME280;9346;52.006;4.720;2023-07-13T11:41:07;101568.56;;;21.84;100.00
18436;BME280;9346;52.006;4.720;2023-07-13T11:43:41;101563.09;;;21.88;100.00
18436;BME280;9346;52.006;4.720;2023-07-13T11:46:14;101562.75;;;21.89;100.00
18436;BME280;9346;52.006;4.720;2023-07-13T11:48:41;101568.69;;;21.88;100.00
18436;BME280;9346;52.006;4.720;2023-07-13T11:51:14;101576.31;;;21.87;100.00
18436;BME280;9346;52.006;4.720;2023-07-13T11:53:48;101583.22;;;21.90;100.00
18436;BME280;9346;52.006;4.720;2023-07-13T11:56:16;101578.91;;;22.01;100.00
18436;BME280;9346;52.006;4.720;2023-07-13T11:58:43;101572.97;;;22.11;100.00
18436;BME280;9346;52.006;4.720;2023-07-13T12:01:18;101574.09;;;22.27;100.00
18436;BME280;9346;52.006;4.720;2023-07-13T12:03:48;101577.81;;;22.40;100.00
18436;BME280;9346;52.006;4.720;2023-07-13T12:06:27;101578.00;;;22.43;100.00
18436;BME280;9346;52.006;4.720;2023-07-13T12:09:01;101576.50;;;22.46;100.00
18436;BME280;9346;52.006;4.720;2023-07-13T12:11:30;101573.19;;;22.52;100.00
18436;BME280;9346;52.006;4.720;2023-07-13T12:13:58;101575.13;;;22.60;100.00
18436;BME280;9346;52.006;4.720;2023-07-13T12:16:28;101573.13;;;22.69;100.00
18436;BME280;9346;52.006;4.720;2023-07-13T12:18:59;101569.78;;;22.76;100.00
18436;BME280;9346;52.006;4.720;2023-07-13T12:21:30;101573.53;;;22.80;100.00
18436;BME280;9346;52.006;4.720;2023-07-13T12:24:00;101570.06;;;22.83;100.00
18436;BME280;9346;52.006;4.720;2023-07-13T12:26:36;101573.97;;;22.90;100.00
18436;BME280;9346;52.006;4.720;2023-07-13T12:29:06;101572.13;;;22.94;100.00
18436;BME280;9346;52.006;4.720;2023-07-13T12:31:36;101579.69;;;23.02;100.00
18436;BME280;9346;52.006;4.720;2023-07-13T12:34:08;101581.00;;;23.05;100.00
18436;BME280;9346;52.006;4.720;2023-07-13T12:36:38;101576.69;;;23.07;100.00
18436;BME280;9346;52.006;4.720;2023-07-13T12:39:28;101576.56;;;23.04;100.00
18436;BME280;9346;52.006;4.720;2023-07-13T12:42:17;101575.28;;;22.93;100.00
18436;BME280;9346;52.006;4.720;2023-07-13T12:44:46;101569.28;;;23.03;100.00
18436;BME280;9346;52.006;4.720;2023-07-13T12:47:15;101573.84;;;23.16;100.00
18436;BME280;9346;52.006;4.720;2023-07-13T12:49:47;101571.81;;;23.25;100.00
18436;BME280;9346;52.006;4.720;2023-07-13T12:52:21;101581.22;;;23.29;100.00
18436;BME280;9346;52.006;4.720;2023-07-13T12:54:55;101572.56;;;23.34;100.00
18436;BME280;9346;52.006;4.720;2023-07-13T12:57:24;101573.75;;;23.33;100.00
18436;BME280;9346;52.006;4.720;2023-07-13T12:59:52;101584.22;;;23.24;100.00
18436;BME280;9346;52.006;4.720;2023-07-13T13:02:26;101590.34;;;23.26;100.00